This is the latest recevied weather packets stored in our database for station/object EA1IXY-2. If no packets are shown the sender has not sent any weather packets the latest 10 day(s).
| Time | Temp. | Humidity | Pressure | Rain* | Wind** | Luminosity | Snow |
|---|---|---|---|---|---|---|---|
| 1777695929 | 37.22° C | 19% | 928.7 hPa | - | - | - | - |
| 1777695017 | 38.33° C | 18% | 930.1 hPa | - | - | - | - |
| 1777694117 | 38.33° C | 19% | 930.2 hPa | - | - | - | - |
| 1777693217 | 38.33° C | 18% | 930.4 hPa | - | - | - | - |
| 1777692317 | 38.33° C | 18% | 930.6 hPa | - | - | - | - |
| 1777691417 | 38.33° C | 18% | 930.4 hPa | - | - | - | - |
| 1777690516 | 38.33° C | 18% | 930.5 hPa | - | - | - | - |
| 1777689616 | 38.33° C | 18% | 930.5 hPa | - | - | - | - |
| 1777688716 | 38.33° C | 18% | 930.7 hPa | - | - | - | - |
| 1777687816 | 38.33° C | 18% | 930.6 hPa | - | - | - | - |
| 1777686916 | 38.33° C | 18% | 930.9 hPa | - | - | - | - |
| 1777686016 | 38.89° C | 18% | 931 hPa | - | - | - | - |
| 1777685116 | 37.78° C | 18% | 929.9 hPa | - | - | - | - |
| 1777684204 | 38.33° C | 18% | 931.2 hPa | - | - | - | - |
| 1777683304 | 38.33° C | 18% | 931.3 hPa | - | - | - | - |
| 1777682404 | 38.89° C | 17% | 931.5 hPa | - | - | - | - |
| 1777681504 | 38.33° C | 18% | 931.5 hPa | - | - | - | - |
| 1777680603 | 38.33° C | 17% | 931.6 hPa | - | - | - | - |
| 1777679703 | 38.89° C | 17% | 931.6 hPa | - | - | - | - |
| 1777678803 | 38.33° C | 18% | 931.9 hPa | - | - | - | - |
| 1777677903 | 38.89° C | 17% | 932 hPa | - | - | - | - |
| 1777677003 | 38.89° C | 17% | 931.8 hPa | - | - | - | - |
| 1777676103 | 38.89° C | 17% | 932 hPa | - | - | - | - |
| 1777675203 | 38.33° C | 17% | 931.9 hPa | - | - | - | - |
| 1777674304 | 37.22° C | 18% | 930.7 hPa | - | - | - | - |
* Rain since midnight (hover to see other rain measurements)
** Current wind speed in m/s (hover to see current wind gust speed)